createdAt,value
2018-11-10T00:01:19.921Z,68.40
2018-11-10T00:03:48.136Z,67.70
2018-11-10T00:06:16.141Z,72.17
2018-11-10T00:08:44.145Z,69.90
2018-11-10T00:11:12.133Z,68.67
2018-11-10T00:13:40.142Z,68.60
2018-11-10T00:16:08.161Z,69.80
2018-11-10T00:18:36.154Z,75.47
2018-11-10T00:21:04.185Z,70.80
2018-11-10T00:23:32.169Z,64.10
2018-11-10T00:26:00.180Z,63.83
2018-11-10T00:28:28.201Z,62.77
2018-11-10T00:30:56.212Z,71.53
2018-11-10T00:33:24.244Z,70.13
2018-11-10T00:35:52.273Z,73.37
2018-11-10T00:38:20.273Z,60.50
2018-11-10T00:40:48.310Z,60.77
2018-11-10T00:43:16.318Z,64.73
2018-11-10T00:45:44.318Z,69.13
2018-11-10T00:48:12.380Z,61.63
2018-11-10T00:50:40.388Z,62.53
2018-11-10T00:53:08.376Z,62.87
2018-11-10T00:55:36.356Z,61.07
2018-11-10T00:58:04.627Z,56.33
2018-11-10T01:00:32.634Z,55.03
2018-11-10T01:03:00.661Z,50.23
2018-11-10T01:05:28.756Z,55.13
2018-11-10T01:07:56.795Z,53.17
2018-11-10T01:10:25.014Z,48.93
2018-11-10T01:12:53.036Z,47.20
2018-11-10T01:15:21.065Z,46.70
2018-11-10T01:17:49.068Z,46.37
2018-11-10T01:20:17.121Z,57.93
2018-11-10T01:22:45.120Z,42.70
2018-11-10T01:25:13.117Z,46.47
2018-11-10T01:27:41.165Z,44.83
2018-11-10T01:30:13.339Z,42.00
2018-11-10T01:32:41.685Z,49.00
2018-11-10T01:35:09.690Z,40.20
2018-11-10T01:37:38.069Z,43.70
2018-11-10T01:40:07.630Z,42.00
2018-11-10T01:42:35.805Z,38.70
2018-11-10T01:45:03.828Z,41.27
2018-11-10T01:47:31.809Z,38.70
2018-11-10T01:49:59.788Z,32.53
2018-11-10T01:52:27.777Z,36.30
2018-11-10T01:54:55.786Z,57.60
2018-11-10T01:57:23.797Z,36.50
2018-11-10T01:59:51.822Z,38.63
2018-11-10T02:02:19.877Z,39.43
2018-11-10T02:04:47.865Z,40.20
2018-11-10T02:07:15.963Z,41.23
2018-11-10T02:09:44.048Z,37.60
2018-11-10T02:12:12.099Z,37.17
2018-11-10T02:14:40.257Z,44.50
2018-11-10T02:17:08.298Z,39.63
2018-11-10T02:19:36.309Z,45.40
2018-11-10T02:22:04.320Z,48.67
2018-11-10T02:24:32.340Z,37.87
2018-11-10T02:27:00.324Z,41.40
2018-11-10T02:29:28.321Z,48.10
2018-11-10T02:31:56.338Z,41.27
2018-11-10T02:34:24.353Z,46.53
2018-11-10T02:36:52.372Z,40.13
2018-11-10T02:39:20.388Z,41.90
2018-11-10T02:41:48.417Z,40.83
2018-11-10T02:44:16.525Z,38.03
2018-11-10T02:46:44.615Z,44.13
2018-11-10T02:49:12.612Z,40.43
2018-11-10T02:51:40.764Z,42.90
2018-11-10T02:54:08.777Z,42.83
2018-11-10T02:56:36.773Z,43.53
2018-11-10T02:59:04.809Z,39.40
2018-11-10T03:01:32.829Z,49.47
2018-11-10T03:04:00.830Z,37.40
2018-11-10T03:06:28.825Z,34.90
2018-11-10T03:08:56.820Z,31.47
2018-11-10T03:11:24.873Z,37.43
2018-11-10T03:13:52.992Z,36.13
2018-11-10T03:16:21.206Z,36.70
2018-11-10T03:18:49.119Z,31.10
2018-11-10T03:21:17.175Z,37.33
2018-11-10T03:23:45.189Z,33.10
2018-11-10T03:26:13.213Z,39.90
2018-11-10T03:28:41.204Z,35.37
2018-11-10T03:31:09.221Z,43.30
2018-11-10T03:33:37.293Z,30.60
2018-11-10T03:36:05.393Z,40.33
2018-11-10T03:38:33.409Z,33.10
2018-11-10T03:41:01.520Z,39.17
2018-11-10T03:43:29.501Z,36.23
2018-11-10T03:45:57.557Z,40.17
2018-11-10T03:48:25.697Z,35.77
2018-11-10T03:50:53.764Z,34.20
2018-11-10T03:53:22.397Z,42.50
2018-11-10T03:55:50.480Z,34.57
2018-11-10T03:58:18.785Z,34.67
2018-11-10T04:00:46.788Z,36.00
2018-11-10T04:03:14.744Z,33.13
2018-11-10T04:05:42.791Z,37.97
2018-11-10T04:08:10.782Z,31.73
2018-11-10T04:10:38.760Z,37.47
2018-11-10T04:13:06.749Z,37.17
2018-11-10T04:15:34.733Z,34.10
2018-11-10T04:18:02.784Z,34.40
2018-11-10T04:20:30.798Z,36.43
2018-11-10T04:22:58.825Z,34.60
2018-11-10T04:25:26.907Z,33.47
2018-11-10T04:27:54.939Z,41.53
2018-11-10T04:30:22.924Z,46.67
2018-11-10T04:32:50.968Z,28.00
2018-11-10T04:35:18.958Z,40.53
2018-11-10T04:37:47.025Z,34.50
2018-11-10T04:40:15.001Z,30.37
2018-11-10T04:42:42.993Z,28.23
2018-11-10T04:45:12.041Z,29.83
2018-11-10T04:47:40.092Z,30.20
2018-11-10T04:50:09.720Z,35.07
2018-11-10T04:52:37.699Z,28.40
2018-11-10T04:55:06.117Z,29.07
2018-11-10T04:57:34.132Z,32.70
2018-11-10T05:00:02.113Z,28.83
2018-11-10T05:02:30.103Z,29.50
2018-11-10T05:04:58.124Z,31.43
2018-11-10T05:07:26.136Z,27.63
2018-11-10T05:09:54.197Z,28.70
2018-11-10T05:12:22.200Z,36.90
2018-11-10T05:14:50.255Z,35.23
2018-11-10T05:17:18.265Z,27.63
2018-11-10T05:19:46.338Z,26.20
2018-11-10T05:22:14.369Z,26.80
2018-11-10T05:24:42.348Z,24.80
2018-11-10T05:27:10.377Z,31.60
2018-11-10T05:29:38.437Z,31.87
2018-11-10T05:32:06.502Z,39.43
2018-11-10T05:34:34.490Z,30.30
2018-11-10T05:37:02.503Z,32.10
2018-11-10T05:39:30.513Z,24.20
2018-11-10T05:41:58.609Z,27.33
2018-11-10T05:44:26.596Z,26.97
2018-11-10T05:46:54.659Z,29.97
2018-11-10T05:49:22.656Z,27.00
2018-11-10T05:51:50.653Z,27.27
2018-11-10T05:54:18.697Z,28.03
2018-11-10T05:56:46.711Z,21.53
2018-11-10T05:59:14.897Z,29.60
2018-11-10T06:01:42.985Z,23.50
2018-11-10T06:04:10.984Z,26.07
2018-11-10T06:06:38.974Z,23.80
2018-11-10T06:09:08.296Z,22.60
2018-11-10T06:11:36.289Z,21.13
2018-11-10T06:14:04.290Z,26.10
2018-11-10T06:16:32.256Z,22.20
2018-11-10T06:19:00.497Z,20.50
2018-11-10T06:21:31.400Z,24.33
2018-11-10T06:23:59.414Z,17.67
2018-11-10T06:26:27.913Z,25.00
2018-11-10T06:28:55.938Z,17.47
2018-11-10T06:31:23.937Z,27.60
2018-11-10T06:33:51.969Z,16.50
2018-11-10T06:36:20.003Z,19.23
2018-11-10T06:38:48.060Z,18.13
2018-11-10T06:41:16.108Z,17.67
2018-11-10T06:43:44.101Z,19.13
2018-11-10T06:46:12.148Z,18.33
2018-11-10T06:48:40.529Z,18.50
2018-11-10T06:51:08.628Z,17.07
2018-11-10T06:53:36.624Z,18.70
2018-11-10T06:56:04.662Z,17.87
2018-11-10T06:58:32.660Z,17.97
2018-11-10T07:01:00.694Z,20.70
2018-11-10T07:03:28.776Z,20.00
2018-11-10T07:05:56.709Z,16.70
2018-11-10T07:08:24.753Z,17.83
2018-11-10T07:10:52.740Z,16.23
2018-11-10T07:13:20.837Z,16.03
2018-11-10T07:15:48.834Z,18.00
2018-11-10T07:18:16.974Z,28.00
2018-11-10T07:20:44.890Z,18.70
2018-11-10T07:23:12.963Z,14.60
2018-11-10T07:25:40.982Z,17.77
2018-11-10T07:28:08.969Z,19.90
2018-11-10T07:30:36.986Z,14.80
2018-11-10T07:33:05.410Z,14.87
2018-11-10T07:35:33.419Z,17.33
2018-11-10T07:38:01.436Z,19.40
2018-11-10T07:40:29.489Z,16.27
2018-11-10T07:42:57.518Z,17.37
2018-11-10T07:45:25.502Z,13.20
2018-11-10T07:47:53.497Z,14.00
2018-11-10T07:50:21.625Z,18.03
2018-11-10T07:52:49.701Z,17.30
2018-11-10T07:55:18.561Z,15.93
2018-11-10T07:57:46.705Z,11.30
2018-11-10T08:00:17.903Z,15.17
2018-11-10T08:02:45.904Z,12.07
2018-11-10T08:05:14.625Z,15.50
2018-11-10T08:07:43.433Z,15.87
2018-11-10T08:10:12.014Z,17.90
2018-11-10T08:12:40.062Z,11.10
2018-11-10T08:15:10.069Z,15.67
2018-11-10T08:17:38.174Z,16.90
2018-11-10T08:20:06.208Z,20.63
2018-11-10T08:22:34.229Z,12.27
2018-11-10T08:25:02.262Z,17.23
2018-11-10T08:27:30.275Z,12.93
2018-11-10T08:29:58.311Z,8.83
2018-11-10T08:32:26.530Z,10.03
2018-11-10T08:34:54.609Z,12.73
2018-11-10T08:37:22.629Z,11.83
2018-11-10T08:39:50.677Z,10.53
2018-11-10T08:42:18.689Z,13.37
2018-11-10T08:44:46.717Z,11.53
2018-11-10T08:47:14.725Z,15.63
2018-11-10T08:49:42.768Z,13.63
2018-11-10T08:52:10.773Z,11.07
2018-11-10T08:57:09.271Z,11.73
2018-11-10T08:59:37.303Z,11.20
2018-11-10T09:02:05.459Z,14.17
2018-11-10T09:04:33.506Z,14.60
2018-11-10T09:07:01.487Z,16.20
2018-11-10T09:09:30.601Z,15.37
2018-11-10T09:11:58.580Z,12.73
2018-11-10T09:14:26.641Z,21.53
2018-11-10T09:16:54.641Z,11.37
2018-11-10T09:19:22.653Z,15.57
2018-11-10T09:21:50.734Z,19.17
2018-11-10T09:24:18.674Z,18.87
2018-11-10T09:26:46.708Z,16.60
2018-11-10T09:29:14.749Z,19.67
2018-11-10T09:31:42.872Z,14.00
2018-11-10T09:34:10.856Z,17.10
2018-11-10T09:36:38.954Z,20.27
2018-11-10T09:39:07.377Z,20.40
2018-11-10T09:41:35.690Z,15.60
2018-11-10T09:44:03.742Z,19.83
2018-11-10T09:46:31.778Z,22.43
2018-11-10T09:48:59.759Z,16.63
2018-11-10T09:51:27.780Z,18.23
2018-11-10T09:53:55.831Z,19.70
2018-11-10T09:56:23.875Z,19.13
2018-11-10T09:58:51.909Z,23.30
2018-11-10T10:01:20.049Z,24.07
2018-11-10T10:03:48.012Z,19.17
2018-11-10T10:06:16.025Z,21.77
2018-11-10T10:08:44.112Z,21.03
2018-11-10T10:11:12.052Z,16.80
2018-11-10T10:13:40.206Z,19.07
2018-11-10T10:16:08.742Z,21.17
2018-11-10T10:18:36.721Z,27.50
2018-11-10T10:21:04.787Z,18.13
2018-11-10T10:23:32.789Z,21.63
2018-11-10T10:26:00.821Z,16.43
2018-11-10T10:28:28.912Z,25.30
2018-11-10T10:30:56.885Z,17.27
2018-11-10T10:33:24.966Z,21.93
2018-11-10T10:35:53.022Z,17.73
2018-11-10T10:38:21.097Z,18.07
2018-11-10T10:40:49.154Z,17.93
2018-11-10T10:43:17.151Z,15.60
2018-11-10T10:45:45.136Z,19.00
2018-11-10T10:48:13.167Z,19.63
2018-11-10T10:50:41.164Z,21.57
2018-11-10T10:53:09.163Z,15.23
2018-11-10T10:55:37.341Z,19.33
2018-11-10T10:58:06.258Z,19.10
2018-11-10T11:00:39.569Z,19.73
2018-11-10T11:03:13.027Z,21.07
2018-11-10T11:05:41.019Z,16.43
2018-11-10T11:08:09.030Z,22.67
2018-11-10T11:10:37.058Z,18.03
2018-11-10T11:13:05.185Z,16.73
2018-11-10T11:15:33.350Z,16.00
2018-11-10T11:18:01.274Z,24.90
2018-11-10T11:20:29.320Z,24.90
2018-11-10T11:22:57.324Z,23.87
2018-11-10T11:25:25.312Z,18.03
2018-11-10T11:27:53.317Z,19.80
2018-11-10T11:30:21.349Z,18.40
2018-11-10T11:32:49.456Z,18.07
2018-11-10T11:35:17.484Z,15.70
2018-11-10T11:37:45.461Z,16.87
2018-11-10T11:40:14.395Z,17.17
2018-11-10T11:42:42.651Z,17.60
2018-11-10T11:45:11.766Z,17.97
2018-11-10T11:47:40.306Z,17.07
2018-11-10T11:50:09.670Z,18.70
2018-11-10T11:52:38.115Z,16.40
2018-11-10T11:55:06.578Z,14.87
2018-11-10T11:57:35.495Z,20.50
2018-11-10T12:00:05.078Z,21.93
2018-11-10T12:02:33.106Z,20.80
2018-11-10T12:05:01.105Z,17.67
2018-11-10T12:07:29.121Z,19.83
2018-11-10T12:09:57.161Z,22.17
2018-11-10T12:12:25.160Z,15.73
2018-11-10T12:14:53.183Z,16.60
2018-11-10T12:17:21.201Z,23.40
2018-11-10T12:19:49.174Z,18.30
2018-11-10T12:22:17.179Z,19.10
2018-11-10T12:24:45.249Z,16.83
2018-11-10T12:27:13.257Z,17.07
2018-11-10T12:29:41.255Z,16.10
2018-11-10T12:32:09.317Z,13.33
2018-11-10T12:34:37.333Z,22.80
2018-11-10T12:37:05.572Z,17.50
2018-11-10T12:39:33.587Z,15.73
2018-11-10T12:42:01.602Z,21.60
2018-11-10T12:44:29.585Z,26.53
2018-11-10T12:46:57.593Z,21.90
2018-11-10T12:49:25.593Z,23.70
2018-11-10T12:51:53.624Z,20.10
2018-11-10T12:54:21.621Z,22.33
2018-11-10T12:56:49.660Z,17.77
2018-11-10T12:59:17.679Z,24.20
2018-11-10T13:01:45.725Z,23.20
2018-11-10T13:04:14.006Z,18.77
2018-11-10T13:06:42.007Z,17.77
2018-11-10T13:09:11.073Z,18.53
2018-11-10T13:11:39.366Z,19.37
2018-11-10T13:14:08.751Z,19.73
2018-11-10T13:16:36.820Z,23.67
2018-11-10T13:19:05.160Z,15.03
2018-11-10T13:21:33.188Z,21.23
2018-11-10T13:24:01.202Z,19.53
2018-11-10T13:26:29.252Z,24.93
2018-11-10T13:28:57.261Z,18.93
2018-11-10T13:31:25.471Z,24.67
2018-11-10T13:33:53.324Z,25.90
2018-11-10T13:36:21.412Z,22.43
2018-11-10T13:38:49.562Z,20.97
2018-11-10T13:41:17.498Z,26.40
2018-11-10T13:43:45.603Z,26.73
2018-11-10T13:46:13.654Z,30.23
2018-11-10T13:48:41.644Z,27.57
2018-11-10T13:51:09.861Z,29.27
2018-11-10T13:53:37.729Z,24.37
2018-11-10T13:56:05.920Z,30.43
2018-11-10T13:58:34.008Z,20.80
2018-11-10T14:01:02.081Z,30.83
2018-11-10T14:03:30.766Z,24.30
2018-11-10T14:05:58.766Z,20.80
2018-11-10T14:08:26.783Z,21.80
2018-11-10T14:10:54.817Z,21.83
2018-11-10T14:13:22.818Z,26.37
2018-11-10T14:15:50.814Z,27.10
2018-11-10T14:18:18.846Z,23.27
2018-11-10T14:20:47.009Z,24.70
2018-11-10T14:23:14.917Z,27.40
2018-11-10T14:25:42.929Z,24.30
2018-11-10T14:28:10.998Z,27.20
2018-11-10T14:30:39.245Z,27.77
2018-11-10T14:33:07.258Z,21.40
2018-11-10T14:35:35.259Z,27.30
2018-11-10T14:38:03.260Z,25.17
2018-11-10T14:40:31.249Z,21.10
2018-11-10T14:42:59.290Z,22.10
2018-11-10T14:45:27.290Z,24.60
2018-11-10T14:47:55.432Z,24.93
2018-11-10T14:50:23.432Z,27.23
2018-11-10T14:52:51.596Z,27.07
2018-11-10T14:55:19.450Z,21.97
2018-11-10T14:57:47.452Z,25.40
2018-11-10T15:00:17.313Z,28.63
2018-11-10T15:02:45.341Z,26.97
2018-11-10T15:05:13.741Z,31.03
2018-11-10T15:07:42.736Z,27.10
2018-11-10T15:10:12.465Z,25.63
2018-11-10T15:12:40.932Z,25.10
2018-11-10T15:15:10.400Z,29.83
2018-11-10T15:17:38.826Z,26.20
2018-11-10T15:20:07.465Z,23.50
2018-11-10T15:22:35.674Z,22.13
2018-11-10T15:25:03.657Z,29.97
2018-11-10T15:27:31.869Z,24.63
2018-11-10T15:29:59.901Z,23.10
2018-11-10T15:32:27.953Z,26.60
2018-11-10T15:34:55.988Z,28.83
2018-11-10T15:37:24.026Z,25.00
2018-11-10T15:39:58.872Z,24.73
2018-11-10T15:42:26.904Z,24.17
2018-11-10T15:44:54.959Z,30.20
2018-11-10T15:47:23.090Z,28.83
2018-11-10T15:49:51.099Z,29.27
2018-11-10T15:52:19.101Z,30.67
2018-11-10T15:54:47.253Z,26.40
2018-11-10T15:57:15.345Z,24.40
2018-11-10T15:59:43.361Z,27.17
2018-11-10T16:02:11.408Z,25.20
2018-11-10T16:04:39.391Z,36.10
2018-11-10T16:07:07.378Z,22.57
2018-11-10T16:09:35.392Z,35.13
2018-11-10T16:12:03.505Z,27.17
2018-11-10T16:14:31.553Z,28.50
2018-11-10T16:16:59.610Z,24.23
2018-11-10T16:19:27.596Z,29.47
2018-11-10T16:21:55.673Z,26.80
2018-11-10T16:24:23.702Z,23.60
2018-11-10T16:26:51.766Z,31.63
2018-11-10T16:29:19.820Z,24.53
2018-11-10T16:31:47.801Z,28.33
2018-11-10T16:34:15.824Z,30.57
2018-11-10T16:36:43.906Z,26.43
2018-11-10T16:39:11.928Z,24.20
2018-11-10T16:41:40.069Z,27.70
2018-11-10T16:44:08.241Z,24.80
2018-11-10T16:46:36.253Z,32.77
2018-11-10T16:49:04.513Z,32.97
2018-11-10T16:51:32.537Z,30.00
2018-11-10T16:54:00.513Z,26.73
2018-11-10T16:56:28.631Z,31.97
2018-11-10T16:58:56.720Z,36.00
2018-11-10T17:01:24.658Z,28.45
2018-11-10T17:03:52.652Z,26.27
2018-11-10T17:06:20.687Z,25.93
2018-11-10T17:08:48.719Z,27.00
2018-11-10T17:11:16.708Z,24.30
2018-11-10T17:13:44.918Z,26.70
2018-11-10T17:16:12.941Z,27.53
2018-11-10T17:18:41.038Z,27.10
2018-11-10T17:21:09.017Z,30.37
2018-11-10T17:23:37.149Z,30.70
2018-11-10T17:26:05.175Z,33.30
2018-11-10T17:28:33.204Z,34.33
2018-11-10T17:31:01.213Z,29.13
2018-11-10T17:33:29.223Z,25.97
2018-11-10T17:35:57.287Z,28.20
2018-11-10T17:38:25.264Z,28.03
2018-11-10T17:40:53.264Z,30.60
2018-11-10T17:43:21.268Z,28.57
2018-11-10T17:45:49.236Z,32.03
2018-11-10T17:48:17.332Z,27.83
2018-11-10T17:50:45.285Z,29.30
2018-11-10T17:53:13.353Z,36.90
2018-11-10T17:55:41.332Z,28.30
2018-11-10T17:58:09.320Z,29.93
2018-11-10T18:00:37.298Z,22.40
2018-11-10T18:03:05.641Z,31.30
2018-11-10T18:05:33.677Z,34.13
2018-11-10T18:08:01.743Z,27.30
2018-11-10T18:10:29.741Z,23.23
2018-11-10T18:12:57.845Z,24.30
2018-11-10T18:15:25.765Z,32.23
2018-11-10T18:17:53.793Z,20.17
2018-11-10T18:20:21.825Z,21.03
2018-11-10T18:22:49.836Z,23.40
2018-11-10T18:25:17.998Z,21.33
2018-11-10T18:27:45.993Z,24.70
2018-11-10T18:30:14.809Z,27.00
2018-11-10T18:32:43.319Z,30.93
2018-11-10T18:35:11.933Z,26.60
2018-11-10T18:37:40.224Z,30.47
2018-11-10T18:40:08.385Z,28.80
2018-11-10T18:42:36.297Z,25.90
2018-11-10T18:45:04.317Z,26.73
2018-11-10T18:47:32.473Z,24.90
2018-11-10T18:50:00.529Z,34.73
2018-11-10T18:52:28.699Z,26.60
2018-11-10T18:54:56.585Z,25.90
2018-11-10T18:57:24.792Z,25.00
2018-11-10T18:59:52.829Z,28.97
2018-11-10T19:02:20.897Z,27.07
2018-11-10T19:04:48.987Z,29.43
2018-11-10T19:07:17.000Z,30.37
2018-11-10T19:09:45.044Z,27.77
2018-11-10T19:12:13.031Z,32.43
2018-11-10T19:14:41.023Z,27.10
2018-11-10T19:17:09.016Z,21.90
2018-11-10T19:19:37.047Z,24.93
2018-11-10T19:22:05.364Z,25.60
2018-11-10T19:24:33.457Z,29.40
2018-11-10T19:27:01.483Z,28.70
2018-11-10T19:29:29.490Z,35.70
2018-11-10T19:31:57.573Z,27.90
2018-11-10T19:34:25.753Z,25.07
2018-11-10T19:36:53.776Z,26.20
2018-11-10T19:39:21.844Z,33.50
2018-11-10T19:41:49.905Z,23.40
2018-11-10T19:44:18.007Z,24.87
2018-11-10T19:46:45.972Z,28.13
2018-11-10T19:49:14.057Z,29.20
2018-11-10T19:51:42.403Z,30.23
2018-11-10T19:54:11.085Z,30.77
2018-11-10T19:56:39.117Z,29.57
2018-11-10T19:59:07.100Z,30.93
2018-11-10T20:01:35.177Z,37.47
2018-11-10T20:04:03.221Z,25.97
2018-11-10T20:06:31.305Z,24.93
2018-11-10T20:08:59.310Z,25.50
2018-11-10T20:11:27.289Z,26.60
2018-11-10T20:13:55.421Z,29.63
2018-11-10T20:16:23.334Z,27.60
2018-11-10T20:18:51.353Z,26.83
2018-11-10T20:21:19.341Z,25.10
2018-11-10T20:23:47.475Z,23.43
2018-11-10T20:26:15.548Z,21.57
2018-11-10T20:28:43.585Z,25.80
2018-11-10T20:31:11.586Z,26.70
2018-11-10T20:33:39.792Z,27.10
2018-11-10T20:36:07.934Z,23.70
2018-11-10T20:38:36.009Z,29.70
2018-11-10T20:41:04.022Z,22.23
2018-11-10T20:43:32.012Z,23.83
2018-11-10T20:46:00.063Z,25.13
2018-11-10T20:48:28.047Z,29.43
2018-11-10T20:50:56.191Z,26.57
2018-11-10T20:55:57.640Z,26.70
2018-11-10T20:58:25.653Z,26.73
2018-11-10T21:00:53.713Z,27.83
2018-11-10T21:03:21.740Z,27.40
2018-11-10T21:05:49.820Z,24.67
2018-11-10T21:08:17.777Z,29.07
2018-11-10T21:10:45.857Z,24.43
2018-11-10T21:13:13.929Z,20.63
2018-11-10T21:15:41.928Z,24.17
2018-11-10T21:18:09.969Z,24.17
2018-11-10T21:20:38.037Z,31.27
2018-11-10T21:23:06.065Z,24.37
2018-11-10T21:25:34.111Z,26.20
2018-11-10T21:28:02.117Z,23.43
2018-11-10T21:30:30.227Z,24.37
2018-11-10T21:32:58.274Z,23.07
2018-11-10T21:35:26.449Z,25.57
2018-11-10T21:37:54.371Z,22.47
2018-11-10T21:40:22.456Z,21.93
2018-11-10T21:42:50.493Z,23.00
2018-11-10T21:45:18.772Z,38.80
2018-11-10T21:47:46.980Z,21.20
2018-11-10T21:50:18.441Z,20.13
2018-11-10T21:52:46.662Z,31.30
2018-11-10T21:55:16.897Z,31.87
2018-11-10T21:57:45.515Z,39.77
2018-11-10T22:00:15.457Z,32.20
2018-11-10T22:02:44.144Z,23.73
2018-11-10T22:05:12.275Z,24.83
2018-11-10T22:07:40.378Z,27.67
2018-11-10T22:10:10.169Z,20.10
2018-11-10T22:12:38.196Z,26.23
2018-11-10T22:15:08.468Z,27.00
2018-11-10T22:17:36.466Z,19.50
2018-11-10T22:20:05.261Z,21.97
2018-11-10T22:22:33.267Z,23.60
2018-11-10T22:25:01.257Z,21.33
2018-11-10T22:27:29.320Z,25.30
2018-11-10T22:29:57.307Z,23.23
2018-11-10T22:32:25.352Z,26.53
2018-11-10T22:34:53.542Z,19.37
2018-11-10T22:37:21.574Z,17.70
2018-11-10T22:39:49.611Z,17.33
2018-11-10T22:42:17.707Z,24.23
2018-11-10T22:44:45.713Z,25.70
2018-11-10T22:47:13.773Z,19.37
2018-11-10T22:49:41.764Z,19.23
2018-11-10T22:52:09.768Z,19.50
2018-11-10T22:54:37.764Z,21.73
2018-11-10T22:57:06.067Z,17.13
2018-11-10T22:59:33.978Z,21.07
2018-11-10T23:02:01.973Z,22.30
2018-11-10T23:04:29.985Z,23.10
2018-11-10T23:06:57.977Z,20.20
2018-11-10T23:09:26.014Z,20.83
2018-11-10T23:11:54.011Z,23.03
2018-11-10T23:14:22.045Z,19.53
2018-11-10T23:16:50.027Z,23.43
2018-11-10T23:19:18.054Z,25.53
2018-11-10T23:21:46.079Z,22.93
2018-11-10T23:24:14.137Z,19.50
2018-11-10T23:26:42.129Z,22.77
2018-11-10T23:29:10.132Z,21.23
2018-11-10T23:31:38.127Z,22.03
2018-11-10T23:34:06.242Z,28.13
2018-11-10T23:36:34.241Z,22.47
2018-11-10T23:39:02.238Z,24.97
2018-11-10T23:41:30.238Z,23.00
2018-11-10T23:43:58.282Z,29.57
2018-11-10T23:46:26.406Z,22.50
2018-11-10T23:48:54.423Z,23.50
2018-11-10T23:51:22.466Z,22.53
2018-11-10T23:53:50.521Z,20.83
2018-11-10T23:56:18.531Z,23.87
2018-11-10T23:58:46.517Z,22.83
